createdAt,value
2019-04-16T00:00:15.391Z,13.9
2019-04-16T00:05:15.450Z,12.4
2019-04-16T00:10:15.416Z,12.7
2019-04-16T00:20:15.406Z,11.0
2019-04-16T00:25:15.401Z,10.6
2019-04-16T00:30:16.426Z,11.1
2019-04-16T00:35:16.284Z,11.8
2019-04-16T00:40:15.399Z,12.1
2019-04-16T00:45:15.478Z,11.6
2019-04-16T00:50:15.413Z,11.1
2019-04-16T00:55:15.515Z,10.3
2019-04-16T01:00:15.444Z,8.9
2019-04-16T01:05:15.510Z,9.2
2019-04-16T01:15:15.480Z,9.0
2019-04-16T01:20:15.425Z,9.5
2019-04-16T01:25:15.547Z,9.3
2019-04-16T01:30:15.425Z,8.2
2019-04-16T01:35:18.452Z,7.9
2019-04-16T01:40:18.339Z,7.3
2019-04-16T01:45:15.430Z,6.3
2019-04-16T01:50:15.430Z,6.5
2019-04-16T01:55:15.502Z,7.5
2019-04-16T02:00:15.434Z,7.2
2019-04-16T02:05:15.568Z,7.8
2019-04-16T02:10:15.439Z,8.6
2019-04-16T02:15:15.505Z,8.6
2019-04-16T02:20:15.444Z,7.6
2019-04-16T02:25:18.760Z,7.8
2019-04-16T02:30:15.418Z,7.4
2019-04-16T02:35:15.579Z,7.8
2019-04-16T02:40:18.252Z,8.4
2019-04-16T02:45:15.483Z,8.4
2019-04-16T02:50:15.451Z,8.3
2019-04-16T02:55:15.517Z,8.1
2019-04-16T03:00:18.354Z,7.6
2019-04-16T03:10:15.621Z,8.7
2019-04-16T03:15:15.458Z,9.1
2019-04-16T03:20:15.426Z,10.1
2019-04-16T03:25:15.463Z,11.2
2019-04-16T03:30:15.726Z,11.5
2019-04-16T03:35:15.462Z,11.2
2019-04-16T03:40:18.225Z,11.9
2019-04-16T03:45:15.478Z,12.2
2019-04-16T03:50:15.472Z,11.7
2019-04-16T03:55:15.467Z,11.6
2019-04-16T04:00:15.476Z,10.9
2019-04-16T04:05:15.590Z,10.6
2019-04-16T04:10:28.955Z,10.3
2019-04-16T04:15:15.491Z,9.8
2019-04-16T04:20:18.049Z,9.9
2019-04-16T04:25:15.483Z,10.4
2019-04-16T04:30:15.488Z,10.1
2019-04-16T04:35:19.924Z,9.6
2019-04-16T04:40:00.527Z,9.7
2019-04-16T04:45:15.493Z,9.2
2019-04-16T04:50:15.493Z,8.6
2019-04-16T04:55:15.634Z,9.0
2019-04-16T05:00:15.566Z,8.8
2019-04-16T05:05:15.542Z,9.7
2019-04-16T05:10:15.638Z,9.4
2019-04-16T05:15:03.716Z,10.3
2019-04-16T05:20:01.902Z,9.5
2019-04-16T05:25:15.522Z,10.0
2019-04-16T05:30:17.441Z,9.1
2019-04-16T05:35:15.519Z,9.2
2019-04-16T05:40:15.525Z,8.6
2019-04-16T05:45:15.537Z,8.8
2019-04-16T05:50:15.592Z,8.0
2019-04-16T05:55:17.577Z,7.4
2019-04-16T06:00:15.534Z,7.6
2019-04-16T06:05:15.575Z,8.1
2019-04-16T06:10:17.665Z,8.4
2019-04-16T06:15:15.838Z,9.7
2019-04-16T06:20:18.921Z,9.9
2019-04-16T06:25:15.873Z,10.6
2019-04-16T06:30:15.554Z,10.3
2019-04-16T06:35:15.593Z,10.1
2019-04-16T06:40:15.586Z,10.0
2019-04-16T06:45:15.583Z,10.1
2019-04-16T06:50:29.489Z,9.4
2019-04-16T06:55:15.677Z,9.6
2019-04-16T07:00:02.302Z,9.1
2019-04-16T07:05:15.554Z,7.9
2019-04-16T07:10:15.563Z,7.7
2019-04-16T07:15:15.623Z,8.1
2019-04-16T07:20:15.599Z,8.0
2019-04-16T07:25:16.015Z,8.5
2019-04-16T07:30:19.525Z,8.6
2019-04-16T07:35:00.849Z,9.1
2019-04-16T07:40:00.991Z,8.7
2019-04-16T07:45:00.614Z,8.1
2019-04-16T07:50:01.463Z,7.5
2019-04-16T07:55:00.614Z,7.8
2019-04-16T08:00:01.685Z,7.3
2019-04-16T08:05:00.734Z,7.6
2019-04-16T08:10:02.043Z,8.5
2019-04-16T08:15:12.319Z,8.7
2019-04-16T08:20:00.656Z,9.1
2019-04-16T08:25:03.171Z,9.3
2019-04-16T08:30:03.317Z,8.9
2019-04-16T08:35:00.790Z,8.3
2019-04-16T08:40:00.663Z,9.1
2019-04-16T08:45:00.715Z,9.2
2019-04-16T08:50:00.670Z,9.4
2019-04-16T08:55:06.727Z,9.5
2019-04-16T09:00:00.718Z,9.5
2019-04-16T09:05:05.826Z,9.0
2019-04-16T09:10:10.041Z,9.4
2019-04-16T09:15:00.682Z,9.2
2019-04-16T09:20:01.280Z,9.8
2019-04-16T09:25:00.663Z,10.0
2019-04-16T09:30:01.670Z,10.3
2019-04-16T09:35:08.441Z,9.7
2019-04-16T09:40:00.663Z,9.9
2019-04-16T09:45:01.667Z,9.9
2019-04-16T09:50:00.675Z,10.9
2019-04-16T09:55:00.669Z,11.1
2019-04-16T10:00:01.025Z,11.6
2019-04-16T10:05:00.743Z,11.5
2019-04-16T10:10:00.767Z,11.7
2019-04-16T10:15:00.718Z,11.8
2019-04-16T10:20:00.649Z,12.4
2019-04-16T10:25:00.686Z,11.8
2019-04-16T10:30:00.693Z,12.0
2019-04-16T10:35:00.726Z,11.9
2019-04-16T10:40:04.756Z,12.0
2019-04-16T10:45:01.740Z,12.1
2019-04-16T10:50:00.747Z,13.0
2019-04-16T10:55:00.677Z,13.3
2019-04-16T11:00:00.901Z,14.0
2019-04-16T11:05:02.826Z,13.6
2019-04-16T11:10:00.713Z,13.4
2019-04-16T11:15:01.521Z,13.1
2019-04-16T11:20:00.710Z,12.7
2019-04-16T11:25:00.787Z,13.0
2019-04-16T11:30:00.705Z,12.4
2019-04-16T11:35:00.862Z,11.8
2019-04-16T11:40:00.704Z,11.7
2019-04-16T11:45:00.739Z,12.0
2019-04-16T11:50:00.740Z,11.1
2019-04-16T11:55:00.924Z,11.3
2019-04-16T12:00:06.918Z,11.7
2019-04-16T12:10:00.755Z,11.3
2019-04-16T12:15:00.785Z,11.7
2019-04-16T12:20:00.805Z,12.0
2019-04-16T12:25:00.806Z,11.7
2019-04-16T12:30:00.743Z,11.9
2019-04-16T12:35:01.275Z,12.3
2019-04-16T12:40:00.743Z,11.5
2019-04-16T12:45:00.796Z,10.8
2019-04-16T12:50:01.246Z,11.1
2019-04-16T12:55:01.111Z,11.5
2019-04-16T13:00:01.006Z,11.9
2019-04-16T13:05:00.731Z,12.6
2019-04-16T13:10:00.708Z,13.6
2019-04-16T13:15:01.610Z,14.0
2019-04-16T13:20:00.767Z,13.8
2019-04-16T13:25:01.155Z,14.0
2019-04-16T13:30:01.564Z,13.7
2019-04-16T13:35:00.770Z,13.6
2019-04-16T13:40:00.742Z,13.1
2019-04-16T13:45:15.099Z,13.0
2019-04-16T13:50:03.269Z,12.1
2019-04-16T13:55:00.893Z,12.4
2019-04-16T14:00:04.292Z,12.4
2019-04-16T14:05:04.216Z,12.7
2019-04-16T14:10:01.042Z,12.2
2019-04-16T14:15:00.798Z,13.1
2019-04-16T14:20:00.781Z,13.4
2019-04-16T14:25:00.867Z,14.0
2019-04-16T14:30:00.763Z,14.1
2019-04-16T14:35:00.862Z,14.8
2019-04-16T14:40:00.751Z,14.4
2019-04-16T14:45:06.018Z,13.8
2019-04-16T14:50:00.779Z,13.1
2019-04-16T14:55:00.812Z,13.5
2019-04-16T15:00:00.803Z,13.8
2019-04-16T15:05:00.918Z,13.6
2019-04-16T15:10:01.871Z,14.8
2019-04-16T15:15:00.939Z,15.0
2019-04-16T15:20:00.824Z,14.7
2019-04-16T15:25:00.926Z,14.2
2019-04-16T15:30:05.885Z,14.6
2019-04-16T15:35:00.901Z,14.3
2019-04-16T15:45:00.812Z,13.8
2019-04-16T15:50:00.814Z,14.6
2019-04-16T15:55:00.813Z,14.9
2019-04-16T16:00:00.798Z,14.9
2019-04-16T16:05:01.236Z,14.8
2019-04-16T16:10:00.797Z,16.0
2019-04-16T16:15:00.972Z,15.5
2019-04-16T16:20:00.796Z,15.4
2019-04-16T16:25:00.946Z,15.5
2019-04-16T16:30:00.905Z,14.6
2019-04-16T16:35:00.801Z,13.4
2019-04-16T16:40:00.938Z,13.0
2019-04-16T16:45:01.565Z,13.6
2019-04-16T16:50:00.813Z,13.0
2019-04-16T16:55:00.935Z,13.5
2019-04-16T17:00:05.831Z,13.6
2019-04-16T17:05:00.921Z,13.9
2019-04-16T17:15:00.875Z,13.4
2019-04-16T17:20:00.793Z,11.5
2019-04-16T17:25:00.867Z,11.2
2019-04-16T17:30:00.801Z,11.8
2019-04-16T17:45:00.872Z,12.4
2019-04-16T17:55:00.943Z,12.5
2019-04-16T18:00:04.094Z,12.7
2019-04-16T18:05:00.935Z,12.6
2019-04-16T18:10:01.966Z,12.8
2019-04-16T18:15:00.893Z,13.1
2019-04-16T18:20:00.819Z,12.4
2019-04-16T18:30:04.848Z,12.4
2019-04-16T18:35:01.071Z,11.6
2019-04-16T18:40:00.799Z,11.9
2019-04-16T18:45:00.960Z,12.0
2019-04-16T18:50:01.113Z,11.7
2019-04-16T18:55:01.612Z,11.4
2019-04-16T19:00:01.032Z,11.8
2019-04-16T19:05:00.958Z,10.7
2019-04-16T19:10:00.838Z,10.6
2019-04-16T19:15:00.967Z,10.8
2019-04-16T19:20:03.547Z,11.5
2019-04-16T19:25:00.954Z,11.6
2019-04-16T19:30:00.840Z,12.4
2019-04-16T19:35:08.559Z,13.0
2019-04-16T19:40:00.841Z,13.1
2019-04-16T19:45:00.843Z,13.0
2019-04-16T19:50:01.363Z,13.5
2019-04-16T19:55:01.102Z,13.6
2019-04-16T20:00:00.855Z,13.7
2019-04-16T20:05:00.918Z,13.6
2019-04-16T20:10:00.854Z,15.1
2019-04-16T20:15:01.189Z,16.4
2019-04-16T20:20:00.863Z,17.6
2019-04-16T20:25:01.196Z,18.0
2019-04-16T20:30:00.863Z,19.2
2019-04-16T20:35:00.933Z,18.6
2019-04-16T20:40:00.872Z,17.2
2019-04-16T20:45:01.001Z,17.6
2019-04-16T20:50:03.800Z,18.4
2019-04-16T20:55:00.948Z,18.1
2019-04-16T21:00:00.876Z,17.7
2019-04-16T21:05:02.529Z,18.6
2019-04-16T21:10:03.490Z,19.2
2019-04-16T21:15:00.890Z,18.7
2019-04-16T21:20:00.889Z,20.2
2019-04-16T21:25:00.895Z,20.3
2019-04-16T21:30:02.995Z,21.0
2019-04-16T21:35:01.357Z,19.8
2019-04-16T21:40:02.860Z,20.0
2019-04-16T21:45:01.027Z,19.8
2019-04-16T21:50:00.899Z,20.0
2019-04-16T21:55:03.908Z,18.5
2019-04-16T22:00:00.899Z,18.6
2019-04-16T22:10:00.965Z,17.2
2019-04-16T22:15:01.053Z,16.8
2019-04-16T22:20:03.831Z,17.0
2019-04-16T22:25:01.010Z,16.6
2019-04-16T22:30:00.884Z,15.4
2019-04-16T22:35:03.333Z,14.9
2019-04-16T22:40:00.917Z,14.4
2019-04-16T22:45:01.045Z,14.0
2019-04-16T22:50:14.682Z,13.8
2019-04-16T22:55:00.924Z,14.5
2019-04-16T23:00:00.924Z,14.5
2019-04-16T23:05:00.926Z,15.6
2019-04-16T23:10:01.904Z,15.4
2019-04-16T23:15:01.083Z,14.9
2019-04-16T23:20:01.175Z,13.9
2019-04-16T23:25:01.252Z,14.0
2019-04-16T23:30:00.935Z,13.3
2019-04-16T23:35:01.379Z,12.9
2019-04-16T23:40:02.008Z,12.6
2019-04-16T23:45:01.071Z,12.9
2019-04-16T23:50:00.910Z,11.8
2019-04-16T23:55:01.414Z,10.9
